Time;durP1;ratioP1;P1;durP2;ratioP2;P2;SDS_P1;SDS_P2;PMS_P1;PMS_P2;Temp;Humidity;BMP_temperature;BMP_pressure;BME280_temperature;BME280_humidity;BME280_pressure;Samples;Min_cycle;Max_cycle;Signal;HPM_P1;HPM_P2
2021/01/16 00:01:41;;;;;;;15.80;4.78;;;;;;;;;;5043970;28;20489;-68
2021/01/16 00:04:08;;;;;;;11.82;4.90;;;;;;;;;;5040931;28;20120;-68
2021/01/16 00:06:35;;;;;;;15.97;6.50;;;;;;;;;;5047073;28;20044;-68
2021/01/16 00:09:03;;;;;;;15.57;5.83;;;;;;;;;;5044593;28;20493;-68
2021/01/16 00:11:29;;;;;;;14.60;6.68;;;;;;;;;;5050307;28;20033;-68
2021/01/16 00:13:56;;;;;;;17.10;6.72;;;;;;;;;;5042358;28;20071;-68
2021/01/16 00:16:22;;;;;;;13.40;6.30;;;;;;;;;;5041395;28;20151;-68
2021/01/16 00:18:48;;;;;;;11.98;6.15;;;;;;;;;;5048222;28;20041;-68
2021/01/16 00:21:15;;;;;;;8.68;4.40;;;;;;;;;;5037997;28;20045;-68
2021/01/16 00:23:41;;;;;;;13.73;5.90;;;;;;;;;;5050860;28;20564;-68
2021/01/16 00:26:08;;;;;;;12.03;6.80;;;;;;;;;;5047243;28;20133;-68
2021/01/16 00:28:35;;;;;;;13.90;5.97;;;;;;;;;;5041428;28;20049;-68
2021/01/16 00:31:02;;;;;;;11.05;4.68;;;;;;;;;;5046301;28;20044;-68
2021/01/16 00:33:28;;;;;;;;;;;;;;;;;;5044233;28;20044;-68
2021/01/16 00:35:55;;;;;;;13.03;6.10;;;;;;;;;;5046206;28;20335;-68
2021/01/16 00:38:21;;;;;;;17.83;6.33;;;;;;;;;;5046599;28;20044;-68
2021/01/16 00:40:48;;;;;;;13.73;5.30;;;;;;;;;;5041562;28;20116;-68
2021/01/16 00:43:15;;;;;;;9.90;4.38;;;;;;;;;;5040242;28;20494;-68
2021/01/16 00:45:42;;;;;;;16.37;5.93;;;;;;;;;;5048317;28;20041;-68
2021/01/16 00:48:18;;;;;;;15.98;6.32;;;;;;;;;;5044592;28;20114;-68
2021/01/16 00:50:47;;;;;;;11.02;5.28;;;;;;;;;;5044158;28;20060;-68
2021/01/16 00:53:14;;;;;;;14.57;5.67;;;;;;;;;;5039874;28;20099;-68
2021/01/16 00:55:55;;;;;;;16.40;5.77;;;;;;;;;;5045786;28;20488;-68
2021/01/16 00:58:23;;;;;;;14.80;5.75;;;;;;;;;;5050450;28;20597;-68
2021/01/16 01:00:57;;;;;;;14.43;6.97;;;;;;;;;;5045101;28;20467;-68
2021/01/16 01:03:29;;;;;;;13.60;5.90;;;;;;;;;;5049722;28;20048;-68
2021/01/16 01:05:56;;;;;;;12.73;5.57;;;;;;;;;;5045005;28;20518;-68
2021/01/16 01:08:29;;;;;;;12.88;4.93;;;;;;;;;;5046871;28;20049;-68
2021/01/16 01:10:56;;;;;;;14.57;6.07;;;;;;;;;;5039078;28;20060;-69
2021/01/16 01:13:22;;;;;;;14.27;6.23;;;;;;;;;;5048628;28;20053;-69
2021/01/16 01:15:49;;;;;;;12.82;5.25;;;;;;;;;;5049557;28;20508;-68
2021/01/16 01:18:16;;;;;;;12.05;6.07;;;;;;;;;;5042640;28;20521;-68
2021/01/16 01:20:42;;;;;;;15.52;6.22;;;;;;;;;;5043307;28;20401;-68
2021/01/16 01:23:08;;;;;;;13.63;5.50;;;;;;;;;;5048552;28;20040;-68
2021/01/16 01:25:35;;;;;;;15.65;5.88;;;;;;;;;;5048524;28;20159;-68
2021/01/16 01:28:02;;;;;;;13.18;6.20;;;;;;;;;;5046764;28;20420;-68
2021/01/16 01:30:30;;;;;;;12.07;4.57;;;;;;;;;;5046542;28;20650;-68
2021/01/16 01:32:56;;;;;;;17.13;6.30;;;;;;;;;;5039465;28;20049;-68
2021/01/16 01:35:23;;;;;;;9.75;4.78;;;;;;;;;;5045648;28;20049;-68
2021/01/16 01:37:51;;;;;;;12.43;5.13;;;;;;;;;;5042262;28;20700;-68
2021/01/16 01:40:19;;;;;;;13.33;6.20;;;;;;;;;;5045648;28;20049;-68
2021/01/16 01:42:46;;;;;;;13.53;5.70;;;;;;;;;;5050081;28;20485;-68
2021/01/16 01:45:12;;;;;;;12.50;5.67;;;;;;;;;;5040426;28;20049;-68
2021/01/16 01:47:39;;;;;;;13.70;5.50;;;;;;;;;;5041392;28;20072;-68
2021/01/16 01:50:08;;;;;;;13.80;6.30;;;;;;;;;;5045044;28;20095;-68
2021/01/16 01:52:34;;;;;;;14.27;6.13;;;;;;;;;;5051394;28;20044;-69
2021/01/16 01:55:03;;;;;;;12.38;5.43;;;;;;;;;;5041407;28;20110;-68
2021/01/16 01:57:30;;;;;;;15.90;6.43;;;;;;;;;;5050892;28;20489;-68
2021/01/16 01:59:57;;;;;;;17.60;7.40;;;;;;;;;;5049477;28;20650;-68
2021/01/16 02:02:24;;;;;;;12.73;5.70;;;;;;;;;;5050993;28;20059;-68
2021/01/16 02:04:51;;;;;;;19.13;6.73;;;;;;;;;;5049647;28;20052;-68
2021/01/16 02:07:27;;;;;;;18.70;6.55;;;;;;;;;;5043370;28;20049;-68
2021/01/16 02:09:55;;;;;;;8.33;3.83;;;;;;;;;;5044284;28;20049;-68
2021/01/16 02:12:21;;;;;;;13.15;5.75;;;;;;;;;;5043639;28;20049;-68
2021/01/16 02:15:05;;;;;;;13.02;5.55;;;;;;;;;;5042704;28;20048;-68
2021/01/16 02:17:36;;;;;;;15.40;6.37;;;;;;;;;;5051013;28;20092;-68
2021/01/16 02:20:12;;;;;;;15.87;5.83;;;;;;;;;;5049183;28;20492;-68
2021/01/16 02:22:44;;;;;;;16.60;6.40;;;;;;;;;;5048841;28;20072;-68
2021/01/16 02:25:12;;;;;;;12.83;6.20;;;;;;;;;;5046108;28;20099;-68
2021/01/16 02:27:47;;;;;;;13.70;6.47;;;;;;;;;;5057305;28;20057;-68
2021/01/16 02:30:14;;;;;;;15.00;6.43;;;;;;;;;;5044782;28;20044;-68
2021/01/16 02:32:42;;;;;;;16.52;5.95;;;;;;;;;;5050114;28;20132;-68
2021/01/16 02:35:10;;;;;;;16.20;6.33;;;;;;;;;;5045753;28;20041;-68
2021/01/16 02:37:44;;;;;;;15.87;6.07;;;;;;;;;;5043191;28;20045;-68
2021/01/16 02:40:15;;;;;;;15.03;6.47;;;;;;;;;;5029462;28;20527;-68
2021/01/16 02:42:45;;;;;;;17.03;7.13;;;;;;;;;;5043361;28;20047;-68
2021/01/16 02:45:13;;;;;;;15.07;6.43;;;;;;;;;;5041746;28;20492;-68
2021/01/16 02:47:47;;;;;;;14.80;6.53;;;;;;;;;;5041643;28;20041;-68
2021/01/16 02:50:18;;;;;;;15.03;5.90;;;;;;;;;;5051140;28;20045;-68
2021/01/16 02:52:46;;;;;;;14.83;5.97;;;;;;;;;;5041826;28;20057;-68
2021/01/16 02:55:13;;;;;;;16.23;6.80;;;;;;;;;;5039579;28;20569;-68
2021/01/16 02:57:39;;;;;;;;;;;;;;;;;;5049194;28;20029;-68
2021/01/16 03:00:09;;;;;;;18.30;6.50;;;;;;;;;;5043366;28;19929;-68
2021/01/16 03:02:35;;;;;;;17.40;6.60;;;;;;;;;;5035200;28;20037;-68
2021/01/16 03:05:03;;;;;;;16.73;7.25;;;;;;;;;;5041830;28;20097;-68
2021/01/16 03:07:31;;;;;;;14.10;5.90;;;;;;;;;;5050213;28;22250;-69
2021/01/16 03:09:58;;;;;;;14.90;6.33;;;;;;;;;;5043344;28;20086;-68
2021/01/16 03:12:24;;;;;;;15.90;5.63;;;;;;;;;;5037131;28;20050;-68
2021/01/16 03:14:55;;;;;;;14.40;6.28;;;;;;;;;;5040640;28;20065;-68
2021/01/16 03:17:25;;;;;;;14.07;5.80;;;;;;;;;;5042564;28;20056;-68
2021/01/16 03:19:51;;;;;;;15.10;6.23;;;;;;;;;;5043187;28;20055;-68
2021/01/16 03:22:22;;;;;;;15.77;6.30;;;;;;;;;;5043573;28;20128;-68
2021/01/16 03:24:49;;;;;;;15.23;6.33;;;;;;;;;;5038689;28;20112;-68
2021/01/16 03:27:16;;;;;;;12.20;5.97;;;;;;;;;;5042018;28;20061;-68
2021/01/16 03:29:42;;;;;;;14.40;6.10;;;;;;;;;;5039942;28;20493;-68
2021/01/16 03:32:09;;;;;;;8.45;4.20;;;;;;;;;;5047123;28;20041;-68
2021/01/16 03:34:36;;;;;;;14.15;6.32;;;;;;;;;;5040157;28;20565;-68
2021/01/16 03:37:03;;;;;;;14.47;6.97;;;;;;;;;;5041129;28;20111;-68
2021/01/16 03:39:29;;;;;;;16.58;6.28;;;;;;;;;;5036350;28;20033;-67
2021/01/16 03:41:55;;;;;;;16.70;6.88;;;;;;;;;;5041042;28;20054;-67
2021/01/16 03:44:21;;;;;;;11.48;5.00;;;;;;;;;;5045054;28;20041;-67
2021/01/16 03:46:47;;;;;;;22.20;6.30;;;;;;;;;;5046685;28;20087;-67
2021/01/16 03:49:14;;;;;;;12.13;5.90;;;;;;;;;;5055832;28;20121;-67
2021/01/16 03:51:40;;;;;;;15.80;6.13;;;;;;;;;;5042551;28;20048;-67
2021/01/16 03:54:08;;;;;;;9.88;4.60;;;;;;;;;;5052672;28;20095;-67
2021/01/16 03:56:34;;;;;;;14.90;5.80;;;;;;;;;;5046141;28;20040;-67
2021/01/16 03:59:02;;;;;;;12.30;5.23;;;;;;;;;;5049408;28;20033;-67
2021/01/16 04:01:29;;;;;;;13.73;5.10;;;;;;;;;;5053162;28;20102;-68
2021/01/16 04:03:56;;;;;;;13.67;6.50;;;;;;;;;;5049869;28;20045;-67
2021/01/16 04:06:22;;;;;;;13.70;6.07;;;;;;;;;;5052953;28;20048;-67
2021/01/16 04:08:48;;;;;;;11.55;5.38;;;;;;;;;;5049512;28;20047;-67
2021/01/16 04:11:15;;;;;;;17.65;7.15;;;;;;;;;;5047470;28;20416;-67
2021/01/16 04:13:41;;;;;;;14.82;5.95;;;;;;;;;;5047637;28;20040;-67
2021/01/16 04:16:07;;;;;;;13.68;5.75;;;;;;;;;;5048096;28;20041;-67
2021/01/16 04:18:34;;;;;;;15.98;6.65;;;;;;;;;;5043709;28;20037;-67
2021/01/16 04:21:01;;;;;;;13.13;5.93;;;;;;;;;;5046351;28;20060;-67
2021/01/16 04:23:28;;;;;;;15.32;6.43;;;;;;;;;;5045375;28;20120;-67
2021/01/16 04:25:54;;;;;;;13.27;6.38;;;;;;;;;;5050968;28;20175;-67
2021/01/16 04:28:20;;;;;;;10.23;5.05;;;;;;;;;;5043772;28;20052;-67
2021/01/16 04:30:47;;;;;;;8.77;4.50;;;;;;;;;;5050107;28;20059;-66
2021/01/16 04:33:13;;;;;;;9.27;4.13;;;;;;;;;;5046363;28;20728;-67
2021/01/16 04:35:40;;;;;;;12.07;5.45;;;;;;;;;;5052529;28;20565;-67
2021/01/16 04:38:06;;;;;;;12.55;5.57;;;;;;;;;;5046589;28;20049;-67
2021/01/16 04:40:32;;;;;;;12.65;5.65;;;;;;;;;;5037426;28;20045;-67
2021/01/16 04:43:01;;;;;;;13.98;4.47;;;;;;;;;;5037070;28;20033;-67
2021/01/16 04:45:28;;;;;;;15.73;5.90;;;;;;;;;;5051158;28;20103;-67
2021/01/16 04:47:56;;;;;;;13.90;5.88;;;;;;;;;;5037551;28;20492;-67
2021/01/16 04:50:25;;;;;;;18.50;6.33;;;;;;;;;;5044858;28;20045;-67
2021/01/16 04:52:54;;;;;;;13.70;6.00;;;;;;;;;;5050629;28;20048;-67
2021/01/16 04:55:22;;;;;;;13.27;6.00;;;;;;;;;;5046195;28;20053;-67
2021/01/16 04:57:49;;;;;;;11.40;5.50;;;;;;;;;;5041827;28;20045;-67
2021/01/16 05:00:15;;;;;;;;;;;;;;;;;;5045085;28;20092;-67
2021/01/16 05:02:42;;;;;;;11.47;5.30;;;;;;;;;;5045376;28;19974;-67
2021/01/16 05:05:08;;;;;;;;;;;;;;;;;;5044365;28;20041;-67
2021/01/16 05:07:35;;;;;;;14.93;6.40;;;;;;;;;;5046312;28;19924;-67
2021/01/16 05:10:06;;;;;;;16.00;5.90;;;;;;;;;;5044296;28;20045;-67
2021/01/16 05:12:34;;;;;;;15.00;6.37;;;;;;;;;;5044200;28;20106;-67
2021/01/16 05:15:07;;;;;;;13.07;5.63;;;;;;;;;;5046162;28;20049;-67
2021/01/16 05:17:40;;;;;;;13.07;6.40;;;;;;;;;;5046396;28;20103;-67
2021/01/16 05:20:10;;;;;;;11.83;5.70;;;;;;;;;;5039037;28;20053;-67
2021/01/16 05:22:37;;;;;;;13.77;6.20;;;;;;;;;;5052207;28;20107;-67
2021/01/16 05:25:05;;;;;;;12.67;5.93;;;;;;;;;;5048768;28;20509;-67
2021/01/16 05:27:36;;;;;;;12.33;5.70;;;;;;;;;;5034541;28;20049;-67
2021/01/16 05:30:04;;;;;;;15.47;5.43;;;;;;;;;;5041988;28;20041;-67
2021/01/16 05:32:30;;;;;;;11.37;5.23;;;;;;;;;;5040506;28;20038;-67
2021/01/16 05:34:57;;;;;;;;;;;;;;;;;;5040860;28;20532;-67
2021/01/16 05:37:23;;;;;;;20.07;6.37;;;;;;;;;;5043917;28;20372;-67
2021/01/16 05:39:49;;;;;;;12.32;4.47;;;;;;;;;;5041350;28;20120;-67
2021/01/16 05:42:15;;;;;;;12.63;5.10;;;;;;;;;;5047437;28;20037;-67
2021/01/16 05:44:43;;;;;;;13.23;6.03;;;;;;;;;;5041866;28;20358;-67
2021/01/16 05:47:09;;;;;;;12.20;6.33;;;;;;;;;;5044875;28;20045;-67
2021/01/16 05:49:36;;;;;;;12.15;5.00;;;;;;;;;;5049698;28;20124;-67
2021/01/16 05:52:07;;;;;;;15.20;6.53;;;;;;;;;;5043337;28;20050;-67
2021/01/16 05:54:33;;;;;;;13.17;5.80;;;;;;;;;;5043774;28;20037;-67
2021/01/16 05:56:59;;;;;;;9.20;4.15;;;;;;;;;;5044663;28;20229;-67
2021/01/16 05:59:25;;;;;;;;;;;;;;;;;;5046356;28;20060;-67
2021/01/16 06:01:55;;;;;;;14.27;6.00;;;;;;;;;;5048568;28;20372;-67
2021/01/16 06:04:21;;;;;;;12.57;5.10;;;;;;;;;;5040500;28;20045;-67
2021/01/16 06:06:48;;;;;;;12.57;6.00;;;;;;;;;;5040348;28;20119;-67
2021/01/16 06:09:15;;;;;;;11.32;5.43;;;;;;;;;;5039111;28;20109;-67
2021/01/16 06:11:44;;;;;;;14.03;6.17;;;;;;;;;;5044315;28;20041;-67
2021/01/16 06:14:11;;;;;;;12.53;5.77;;;;;;;;;;5046060;28;20416;-67
2021/01/16 06:16:37;;;;;;;;;;;;;;;;;;5045856;28;20042;-67
2021/01/16 06:19:07;;;;;;;11.00;5.47;;;;;;;;;;5039256;28;19921;-67
2021/01/16 06:21:37;;;;;;;11.95;5.45;;;;;;;;;;5055275;28;20095;-67
2021/01/16 06:24:03;;;;;;;14.70;6.50;;;;;;;;;;5044768;28;20422;-67
2021/01/16 06:26:29;;;;;;;13.82;5.72;;;;;;;;;;5040781;28;20140;-67
2021/01/16 06:29:00;;;;;;;12.18;5.63;;;;;;;;;;5041719;28;20196;-67
2021/01/16 06:31:30;;;;;;;15.13;6.57;;;;;;;;;;5038740;28;20049;-67
2021/01/16 06:33:58;;;;;;;12.83;6.00;;;;;;;;;;5046235;28;20044;-67
2021/01/16 06:36:25;;;;;;;16.80;6.93;;;;;;;;;;5045683;28;20114;-68
2021/01/16 06:38:57;;;;;;;15.00;6.53;;;;;;;;;;5039394;28;20429;-67
2021/01/16 06:41:27;;;;;;;11.73;5.70;;;;;;;;;;5040478;28;20033;-67
2021/01/16 06:43:54;;;;;;;12.20;6.03;;;;;;;;;;5041081;28;20037;-67
2021/01/16 06:46:34;;;;;;;17.35;6.47;;;;;;;;;;5041840;28;20051;-67
2021/01/16 06:49:01;;;;;;;12.80;6.00;;;;;;;;;;5044165;28;20068;-67
2021/01/16 06:51:27;;;;;;;15.90;6.07;;;;;;;;;;5040220;28;20041;-67
2021/01/16 06:54:02;;;;;;;17.17;6.70;;;;;;;;;;5044017;28;20068;-67
2021/01/16 06:56:30;;;;;;;17.13;7.00;;;;;;;;;;5040678;28;20440;-67
2021/01/16 06:58:58;;;;;;;14.97;6.60;;;;;;;;;;5048879;28;20045;-67
2021/01/16 07:01:33;;;;;;;11.77;5.67;;;;;;;;;;5039401;28;20132;-67
2021/01/16 07:04:00;;;;;;;18.27;6.43;;;;;;;;;;5040933;28;20037;-67
2021/01/16 07:06:26;;;;;;;14.80;5.88;;;;;;;;;;5037626;28;20102;-67
2021/01/16 07:08:53;;;;;;;14.25;5.95;;;;;;;;;;5037292;28;20048;-67
2021/01/16 07:11:19;;;;;;;15.60;7.07;;;;;;;;;;5043156;28;20061;-68
2021/01/16 07:13:46;;;;;;;;;;;;;;;;;;5046399;28;20116;-67
2021/01/16 07:16:16;;;;;;;13.77;5.83;;;;;;;;;;5045710;28;19944;-67
2021/01/16 07:18:43;;;;;;;16.27;6.90;;;;;;;;;;5044913;28;20055;-67
2021/01/16 07:21:09;;;;;;;14.60;5.22;;;;;;;;;;5049058;28;20041;-67
2021/01/16 07:23:35;;;;;;;12.13;4.88;;;;;;;;;;5044718;28;20048;-67
2021/01/16 07:26:03;;;;;;;13.65;6.75;;;;;;;;;;5047933;28;20120;-67
2021/01/16 07:28:33;;;;;;;14.50;7.03;;;;;;;;;;5048341;28;20051;-67
2021/01/16 07:31:01;;;;;;;12.07;5.90;;;;;;;;;;5040937;28;20583;-67
2021/01/16 07:33:29;;;;;;;15.57;6.00;;;;;;;;;;5046139;28;20429;-67
2021/01/16 07:35:57;;;;;;;12.37;6.57;;;;;;;;;;5051221;28;20037;-67
2021/01/16 07:38:25;;;;;;;11.43;5.33;;;;;;;;;;5045505;28;20045;-67
2021/01/16 07:40:54;;;;;;;12.23;5.70;;;;;;;;;;5047773;28;20736;-67
2021/01/16 07:43:39;;;;;;;20.47;9.13;;;;;;;;;;5045477;28;20044;-67
2021/01/16 07:46:10;;;;;;;14.30;6.30;;;;;;;;;;5050922;28;20045;-67
2021/01/16 07:48:47;;;;;;;13.83;5.93;;;;;;;;;;5045438;28;20125;-67
2021/01/16 07:51:15;;;;;;;17.57;7.17;;;;;;;;;;5043845;28;20033;-67
2021/01/16 07:53:42;;;;;;;15.87;6.50;;;;;;;;;;5045610;28;20045;-67
2021/01/16 07:56:22;;;;;;;16.60;6.93;;;;;;;;;;5049047;28;20043;-67
2021/01/16 07:59:07;;;;;;;17.57;7.40;;;;;;;;;;5052481;28;20521;-67
2021/01/16 08:01:39;;;;;;;16.93;6.40;;;;;;;;;;5049264;28;20094;-67
2021/01/16 08:04:25;;;;;;;14.27;6.57;;;;;;;;;;5049260;28;20047;-67
2021/01/16 08:07:02;;;;;;;18.80;6.90;;;;;;;;;;5054694;28;20496;-67
2021/01/16 08:09:47;;;;;;;13.57;6.10;;;;;;;;;;5052109;28;20095;-67
2021/01/16 08:12:13;;;;;;;14.67;6.03;;;;;;;;;;5057397;28;20045;-67
2021/01/16 08:14:41;;;;;;;10.52;4.82;;;;;;;;;;5053305;28;20079;-67
2021/01/16 08:17:15;;;;;;;14.20;5.93;;;;;;;;;;5047576;28;20095;-67
2021/01/16 08:20:00;;;;;;;13.90;6.37;;;;;;;;;;5047332;28;20043;-67
2021/01/16 08:22:37;;;;;;;14.60;6.47;;;;;;;;;;5049296;28;20116;-67
2021/01/16 08:25:05;;;;;;;13.95;5.97;;;;;;;;;;5048130;28;20053;-67
2021/01/16 08:27:32;;;;;;;15.37;5.87;;;;;;;;;;5048245;28;20106;-67
2021/01/16 08:30:08;;;;;;;17.90;6.17;;;;;;;;;;5045045;28;20045;-67
2021/01/16 08:32:51;;;;;;;14.40;6.47;;;;;;;;;;5043337;28;20106;-67
2021/01/16 08:35:27;;;;;;;17.40;6.20;;;;;;;;;;5044908;28;20087;-67
2021/01/16 08:37:53;;;;;;;16.13;6.83;;;;;;;;;;5039076;28;20084;-66
2021/01/16 08:40:36;;;;;;;13.30;5.95;;;;;;;;;;5041206;28;20439;-67
2021/01/16 08:43:03;;;;;;;14.47;5.90;;;;;;;;;;5044900;28;20493;-67
2021/01/16 08:45:29;;;;;;;16.52;6.43;;;;;;;;;;5045781;28;20039;-67
2021/01/16 08:47:57;;;;;;;10.10;4.80;;;;;;;;;;5043736;28;20041;-68
2021/01/16 08:50:27;;;;;;;15.20;6.70;;;;;;;;;;5039871;28;20046;-67
2021/01/16 08:52:53;;;;;;;14.30;6.67;;;;;;;;;;5041766;28;20496;-68
2021/01/16 08:55:25;;;;;;;12.80;5.20;;;;;;;;;;5046850;28;20501;-67
2021/01/16 08:58:04;;;;;;;12.73;5.47;;;;;;;;;;5051471;28;20049;-67
2021/01/16 09:00:32;;;;;;;12.40;6.27;;;;;;;;;;5042710;28;20038;-67
2021/01/16 09:03:06;;;;;;;14.50;6.70;;;;;;;;;;5046702;28;20079;-67
2021/01/16 09:05:33;;;;;;;10.97;5.40;;;;;;;;;;5043966;28;20045;-67
2021/01/16 09:08:00;;;;;;;32.50;13.03;;;;;;;;;;5041839;28;20122;-67
2021/01/16 09:10:27;;;;;;;23.23;10.80;;;;;;;;;;5040347;28;20064;-67
2021/01/16 09:12:54;;;;;;;19.63;8.17;;;;;;;;;;5043207;28;20550;-67
2021/01/16 09:15:20;;;;;;;;;;;;;;;;;;5043803;28;20056;-67
2021/01/16 09:18:02;;;;;;;14.27;6.83;;;;;;;;;;5042006;28;19928;-67
2021/01/16 09:20:30;;;;;;;13.80;5.77;;;;;;;;;;5043027;28;20033;-67
2021/01/16 09:22:56;;;;;;;12.88;6.15;;;;;;;;;;5045356;28;20488;-68
2021/01/16 09:25:22;;;;;;;12.30;6.57;;;;;;;;;;5040182;28;20037;-67
2021/01/16 09:27:49;;;;;;;13.40;6.57;;;;;;;;;;5044226;28;20057;-67
2021/01/16 09:30:20;;;;;;;11.07;5.32;;;;;;;;;;5047252;28;20455;-67
2021/01/16 09:32:46;;;;;;;11.97;6.17;;;;;;;;;;5043140;28;20087;-68
2021/01/16 09:35:13;;;;;;;18.35;7.55;;;;;;;;;;5048357;28;20079;-67
2021/01/16 09:37:39;;;;;;;13.27;6.25;;;;;;;;;;5042887;28;20090;-67
2021/01/16 09:40:08;;;;;;;15.43;6.43;;;;;;;;;;5040401;28;20052;-67
2021/01/16 09:42:44;;;;;;;17.90;6.63;;;;;;;;;;5043609;28;20556;-67
2021/01/16 09:45:11;;;;;;;13.03;6.50;;;;;;;;;;5040173;28;20408;-66
2021/01/16 09:47:38;;;;;;;19.55;6.80;;;;;;;;;;5044041;28;20495;-66
2021/01/16 09:50:06;;;;;;;21.23;6.70;;;;;;;;;;5040062;28;20045;-67
2021/01/16 09:52:33;;;;;;;9.60;5.40;;;;;;;;;;5047404;28;20045;-66
2021/01/16 09:54:59;;;;;;;15.18;5.68;;;;;;;;;;5041570;28;20665;-67
2021/01/16 09:57:35;;;;;;;11.57;5.15;;;;;;;;;;5041736;28;20044;-67
2021/01/16 10:00:12;;;;;;;15.87;6.77;;;;;;;;;;5045400;28;20412;-66
2021/01/16 10:02:38;;;;;;;13.87;6.60;;;;;;;;;;5045989;28;20033;-67
2021/01/16 10:05:07;;;;;;;14.80;6.35;;;;;;;;;;5039688;28;20060;-67
2021/01/16 10:07:38;;;;;;;13.57;6.50;;;;;;;;;;5041560;28;20036;-67
2021/01/16 10:10:11;;;;;;;17.77;6.63;;;;;;;;;;5042869;28;20566;-67
2021/01/16 10:12:38;;;;;;;14.50;7.17;;;;;;;;;;5043806;28;20459;-67
2021/01/16 10:15:04;;;;;;;;;;;;;;;;;;5039011;28;20037;-67
2021/01/16 10:17:34;;;;;;;12.97;6.13;;;;;;;;;;5043432;28;19921;-67
2021/01/16 10:20:12;;;;;;;18.70;7.03;;;;;;;;;;5046415;28;20146;-67
2021/01/16 10:22:41;;;;;;;16.93;6.93;;;;;;;;;;5040781;28;20466;-66
2021/01/16 10:25:08;;;;;;;15.43;7.07;;;;;;;;;;5045563;28;20148;-67
2021/01/16 10:27:42;;;;;;;16.10;7.28;;;;;;;;;;5045360;28;20053;-67
2021/01/16 10:30:10;;;;;;;13.73;7.03;;;;;;;;;;5043694;28;20090;-67
2021/01/16 10:32:37;;;;;;;12.30;5.97;;;;;;;;;;5040021;28;20052;-67
2021/01/16 10:35:03;;;;;;;16.60;7.50;;;;;;;;;;5042986;28;20432;-67
2021/01/16 10:37:36;;;;;;;15.13;6.03;;;;;;;;;;5045377;28;20086;-67
2021/01/16 10:40:03;;;;;;;14.53;6.13;;;;;;;;;;5045803;28;20045;-67
2021/01/16 10:42:39;;;;;;;14.38;6.55;;;;;;;;;;5039706;28;20041;-67
2021/01/16 10:45:06;;;;;;;16.07;7.03;;;;;;;;;;5045468;28;20049;-67
2021/01/16 10:47:33;;;;;;;14.15;6.88;;;;;;;;;;5043646;28;20033;-67
2021/01/16 10:50:09;;;;;;;13.63;6.37;;;;;;;;;;5038443;28;20497;-67
2021/01/16 10:52:35;;;;;;;13.63;6.33;;;;;;;;;;5047347;28;20075;-67
2021/01/16 10:55:09;;;;;;;12.30;6.25;;;;;;;;;;5040242;28;20052;-67
2021/01/16 10:57:40;;;;;;;13.97;6.77;;;;;;;;;;5043750;28;20056;-67
2021/01/16 11:00:12;;;;;;;15.23;7.07;;;;;;;;;;5036453;28;20041;-67
2021/01/16 11:02:42;;;;;;;15.73;6.70;;;;;;;;;;5047324;28;20473;-66
2021/01/16 11:05:19;;;;;;;14.93;6.73;;;;;;;;;;5038568;28;20033;-67
2021/01/16 11:07:49;;;;;;;20.60;8.47;;;;;;;;;;5047191;28;20040;-67
2021/01/16 11:10:15;;;;;;;16.10;7.73;;;;;;;;;;5036971;28;20045;-68
2021/01/16 11:12:42;;;;;;;14.93;7.97;;;;;;;;;;5046113;28;20045;-67
2021/01/16 11:15:20;;;;;;;13.60;6.55;;;;;;;;;;5046958;28;20482;-67
2021/01/16 11:17:48;;;;;;;19.93;8.87;;;;;;;;;;5044628;28;20050;-67
2021/01/16 11:20:23;;;;;;;22.80;9.53;;;;;;;;;;5048065;28;20029;-67
2021/01/16 11:22:58;;;;;;;17.97;9.70;;;;;;;;;;5048908;28;20098;-67
2021/01/16 11:25:40;;;;;;;18.70;8.90;;;;;;;;;;5042109;28;20118;-67
2021/01/16 11:28:08;;;;;;;18.67;8.20;;;;;;;;;;5045637;28;20061;-67
2021/01/16 11:30:34;;;;;;;;;;;;;;;;;;5049621;28;20036;-67
2021/01/16 11:33:10;;;;;;;13.67;6.43;;;;;;;;;;5043487;28;20377;-67
2021/01/16 11:35:41;;;;;;;13.17;6.90;;;;;;;;;;5044099;28;20049;-68
2021/01/16 11:38:26;;;;;;;13.77;6.57;;;;;;;;;;5044363;28;20052;-67
2021/01/16 11:40:53;;;;;;;13.13;6.40;;;;;;;;;;5046979;28;20045;-67
2021/01/16 11:43:24;;;;;;;19.25;7.03;;;;;;;;;;5044778;28;20054;-67
2021/01/16 11:45:59;;;;;;;15.23;6.70;;;;;;;;;;5038255;28;20060;-67
2021/01/16 11:48:26;;;;;;;18.63;8.17;;;;;;;;;;5044229;28;20040;-67
2021/01/16 11:50:52;;;;;;;13.48;7.07;;;;;;;;;;5041858;28;20045;-67
2021/01/16 11:53:19;;;;;;;12.07;6.03;;;;;;;;;;5042386;28;20045;-67
2021/01/16 11:55:45;;;;;;;13.57;6.97;;;;;;;;;;5038841;28;20126;-67
2021/01/16 11:58:12;;;;;;;14.07;7.17;;;;;;;;;;5042821;28;20098;-67
2021/01/16 12:00:38;;;;;;;14.80;7.25;;;;;;;;;;5045270;28;20186;-67
2021/01/16 12:03:16;;;;;;;;;;;;;;;;;;5044909;28;20512;-67
2021/01/16 12:05:43;;;;;;;11.20;4.63;;;;;;;;;;5041965;28;19967;-67
2021/01/16 12:08:12;;;;;;;8.68;4.82;;;;;;;;;;5042565;28;20045;-67
2021/01/16 12:10:39;;;;;;;8.37;4.60;;;;;;;;;;5044960;28;20538;-67
2021/01/16 12:13:09;;;;;;;9.53;4.60;;;;;;;;;;5048355;28;20100;-67
2021/01/16 12:15:36;;;;;;;6.47;3.80;;;;;;;;;;5043223;28;20052;-67
2021/01/16 12:18:02;;;;;;;21.43;5.07;;;;;;;;;;5043011;28;20124;-66
2021/01/16 12:20:31;;;;;;;13.77;3.28;;;;;;;;;;5055028;28;20045;-67
2021/01/16 12:23:00;;;;;;;25.40;4.33;;;;;;;;;;5047481;28;20447;-68
2021/01/16 12:25:27;;;;;;;203.13;8.37;;;;;;;;;;5045706;28;20036;-67
2021/01/16 12:27:54;;;;;;;47.53;4.80;;;;;;;;;;5045531;28;20084;-67
2021/01/16 12:30:21;;;;;;;35.95;4.90;;;;;;;;;;5048410;28;20045;-67
2021/01/16 12:32:47;;;;;;;;;;;;;;;;;;5047086;28;20514;-67
2021/01/16 12:35:15;;;;;;;8.47;4.80;;;;;;;;;;5047809;28;20273;-67
2021/01/16 12:37:41;;;;;;;;;;;;;;;;;;5047501;28;20444;-66
2021/01/16 12:40:10;;;;;;;8.10;3.80;;;;;;;;;;5047345;28;19951;-67
2021/01/16 12:42:37;;;;;;;8.93;4.37;;;;;;;;;;5044831;28;20099;-67
2021/01/16 12:45:09;;;;;;;7.53;3.53;;;;;;;;;;5043682;28;20132;-67
2021/01/16 12:47:35;;;;;;;9.03;3.60;;;;;;;;;;5043107;28;20044;-67
2021/01/16 12:50:02;;;;;;;5.28;3.10;;;;;;;;;;5043210;28;20119;-67
2021/01/16 12:52:29;;;;;;;7.20;3.22;;;;;;;;;;5045909;28;20048;-67
2021/01/16 12:55:06;;;;;;;8.27;4.68;;;;;;;;;;5040732;28;20048;-67
2021/01/16 12:57:33;;;;;;;7.70;4.43;;;;;;;;;;5050833;28;20048;-67
2021/01/16 13:00:00;;;;;;;18.38;10.25;;;;;;;;;;5045091;28;20045;-68
2021/01/16 13:02:27;;;;;;;14.00;7.57;;;;;;;;;;5047677;28;20516;-68
2021/01/16 13:04:56;;;;;;;19.03;8.93;;;;;;;;;;5047805;28;20118;-67
2021/01/16 13:07:23;;;;;;;11.90;6.35;;;;;;;;;;5047630;28;20572;-67
2021/01/16 13:09:50;;;;;;;10.95;5.22;;;;;;;;;;5050512;28;20041;-67
2021/01/16 13:12:16;;;;;;;4.97;3.25;;;;;;;;;;5044971;28;20058;-67
2021/01/16 13:14:49;;;;;;;5.17;3.37;;;;;;;;;;5049122;28;20106;-67
2021/01/16 13:17:19;;;;;;;6.03;3.73;;;;;;;;;;5048592;28;20048;-67
2021/01/16 13:19:49;;;;;;;6.90;3.70;;;;;;;;;;5050175;28;20041;-67
2021/01/16 13:22:16;;;;;;;5.77;3.30;;;;;;;;;;5045718;28;20067;-67
2021/01/16 13:24:42;;;;;;;6.15;3.72;;;;;;;;;;5048529;28;20512;-67
2021/01/16 13:27:21;;;;;;;5.70;3.22;;;;;;;;;;5049145;28;20060;-67
2021/01/16 13:29:52;;;;;;;5.27;3.20;;;;;;;;;;5050576;28;20122;-66
2021/01/16 13:32:20;;;;;;;5.17;2.93;;;;;;;;;;5049762;28;20049;-67
2021/01/16 13:34:53;;;;;;;5.30;3.40;;;;;;;;;;5049998;28;20053;-66
2021/01/16 13:37:21;;;;;;;6.20;3.43;;;;;;;;;;5050660;28;20139;-67
2021/01/16 13:39:49;;;;;;;5.73;3.70;;;;;;;;;;5049121;28;20497;-67
2021/01/16 13:42:23;;;;;;;8.97;3.73;;;;;;;;;;5046898;28;20045;-69
2021/01/16 13:44:57;;;;;;;9.77;3.20;;;;;;;;;;5048473;28;20086;-67
2021/01/16 13:47:24;;;;;;;13.97;3.63;;;;;;;;;;5045821;28;20055;-67
2021/01/16 13:49:51;;;;;;;9.00;3.47;;;;;;;;;;5045571;28;20128;-68
2021/01/16 13:52:17;;;;;;;12.93;3.30;;;;;;;;;;5048673;28;20045;-69
2021/01/16 13:54:49;;;;;;;13.00;3.30;;;;;;;;;;5046046;28;20095;-69
2021/01/16 13:57:19;;;;;;;11.37;4.20;;;;;;;;;;5046727;28;20076;-68
2021/01/16 13:59:53;;;;;;;6.43;3.07;;;;;;;;;;5046924;28;20071;-69
2021/01/16 14:02:22;;;;;;;7.97;3.50;;;;;;;;;;5047774;28;20052;-68
2021/01/16 14:04:50;;;;;;;8.20;3.47;;;;;;;;;;5045565;28;20048;-68
2021/01/16 14:07:16;;;;;;;;;;;;;;;;;;5046226;28;20045;-68
2021/01/16 14:09:42;;;;;;;14.10;3.40;;;;;;;;;;5048620;28;19964;-69
2021/01/16 14:12:15;;;;;;;23.27;3.87;;;;;;;;;;5043664;28;20067;-68
2021/01/16 14:14:41;;;;;;;9.90;3.80;;;;;;;;;;5045472;28;20041;-67
2021/01/16 14:17:11;;;;;;;12.88;2.70;;;;;;;;;;5046947;28;20051;-67
2021/01/16 14:19:38;;;;;;;10.60;3.40;;;;;;;;;;5045334;28;20480;-67
2021/01/16 14:22:06;;;;;;;12.23;3.53;;;;;;;;;;5043671;28;20051;-66
2021/01/16 14:24:32;;;;;;;5.72;2.95;;;;;;;;;;5044428;28;20100;-67
2021/01/16 14:27:00;;;;;;;13.52;3.70;;;;;;;;;;5045949;28;20127;-66
2021/01/16 14:29:27;;;;;;;19.57;4.07;;;;;;;;;;5046202;28;20048;-67
2021/01/16 14:31:54;;;;;;;13.75;3.47;;;;;;;;;;5044675;28;20068;-67
2021/01/16 14:34:37;;;;;;;6.53;3.00;;;;;;;;;;5045948;28;20059;-67
2021/01/16 14:37:05;;;;;;;15.90;3.53;;;;;;;;;;5045984;28;20101;-67
2021/01/16 14:39:40;;;;;;;10.70;3.70;;;;;;;;;;5044346;28;20133;-68
2021/01/16 14:42:12;;;;;;;14.07;3.97;;;;;;;;;;5043166;28;20193;-67
2021/01/16 14:44:38;;;;;;;12.60;3.57;;;;;;;;;;5042697;28;20041;-67
2021/01/16 14:47:04;;;;;;;9.90;3.67;;;;;;;;;;5044373;28;20044;-67